sensor_id;sensor_type;location;lat;lon;timestamp;P1;durP1;ratioP1;P2;durP2;ratioP2
68479;SDS011;55469;48.934;12.050;2023-01-08T00:01:02;8.27;;;6.15;;
68479;SDS011;55469;48.934;12.050;2023-01-08T00:06:02;9.13;;;6.10;;
68479;SDS011;55469;48.934;12.050;2023-01-08T00:08:29;10.55;;;6.53;;
68479;SDS011;55469;48.934;12.050;2023-01-08T00:10:56;8.52;;;6.40;;
68479;SDS011;55469;48.934;12.050;2023-01-08T00:13:24;8.68;;;6.25;;
68479;SDS011;55469;48.934;12.050;2023-01-08T00:15:51;12.35;;;7.22;;
68479;SDS011;55469;48.934;12.050;2023-01-08T00:18:17;9.02;;;6.50;;
68479;SDS011;55469;48.934;12.050;2023-01-08T00:20:43;9.50;;;6.35;;
68479;SDS011;55469;48.934;12.050;2023-01-08T00:23:10;9.88;;;6.72;;
68479;SDS011;55469;48.934;12.050;2023-01-08T00:25:37;9.52;;;6.70;;
68479;SDS011;55469;48.934;12.050;2023-01-08T00:28:03;9.13;;;6.25;;
68479;SDS011;55469;48.934;12.050;2023-01-08T00:30:29;8.15;;;6.47;;
68479;SDS011;55469;48.934;12.050;2023-01-08T00:32:55;8.63;;;6.40;;
68479;SDS011;55469;48.934;12.050;2023-01-08T00:35:20;9.63;;;6.90;;
68479;SDS011;55469;48.934;12.050;2023-01-08T00:37:49;9.02;;;6.47;;
68479;SDS011;55469;48.934;12.050;2023-01-08T00:40:16;9.25;;;6.63;;
68479;SDS011;55469;48.934;12.050;2023-01-08T00:42:41;9.13;;;6.60;;
68479;SDS011;55469;48.934;12.050;2023-01-08T00:45:09;9.93;;;6.68;;
68479;SDS011;55469;48.934;12.050;2023-01-08T00:47:35;10.38;;;6.97;;
68479;SDS011;55469;48.934;12.050;2023-01-08T00:50:01;8.88;;;6.50;;
68479;SDS011;55469;48.934;12.050;2023-01-08T00:52:26;9.95;;;6.38;;
68479;SDS011;55469;48.934;12.050;2023-01-08T00:54:52;9.95;;;6.30;;
68479;SDS011;55469;48.934;12.050;2023-01-08T00:57:18;8.38;;;6.78;;
68479;SDS011;55469;48.934;12.050;2023-01-08T00:59:43;8.10;;;5.75;;
68479;SDS011;55469;48.934;12.050;2023-01-08T01:02:09;9.57;;;6.75;;
68479;SDS011;55469;48.934;12.050;2023-01-08T01:04:35;8.88;;;6.22;;
68479;SDS011;55469;48.934;12.050;2023-01-08T01:07:01;9.00;;;6.75;;
68479;SDS011;55469;48.934;12.050;2023-01-08T01:09:27;10.80;;;6.80;;
68479;SDS011;55469;48.934;12.050;2023-01-08T01:11:53;8.88;;;5.95;;
68479;SDS011;55469;48.934;12.050;2023-01-08T01:14:19;9.40;;;6.20;;
68479;SDS011;55469;48.934;12.050;2023-01-08T01:16:45;9.23;;;6.60;;
68479;SDS011;55469;48.934;12.050;2023-01-08T01:19:12;9.43;;;6.18;;
68479;SDS011;55469;48.934;12.050;2023-01-08T01:21:40;9.38;;;6.65;;
68479;SDS011;55469;48.934;12.050;2023-01-08T01:24:06;9.20;;;6.35;;
68479;SDS011;55469;48.934;12.050;2023-01-08T01:26:32;10.60;;;6.55;;
68479;SDS011;55469;48.934;12.050;2023-01-08T01:28:59;9.55;;;6.80;;
68479;SDS011;55469;48.934;12.050;2023-01-08T01:31:26;9.60;;;6.72;;
68479;SDS011;55469;48.934;12.050;2023-01-08T01:33:54;8.75;;;6.40;;
68479;SDS011;55469;48.934;12.050;2023-01-08T01:36:20;8.52;;;6.43;;
68479;SDS011;55469;48.934;12.050;2023-01-08T01:38:51;9.57;;;6.47;;
68479;SDS011;55469;48.934;12.050;2023-01-08T01:41:23;9.68;;;6.57;;
68479;SDS011;55469;48.934;12.050;2023-01-08T01:43:49;10.38;;;6.70;;
68479;SDS011;55469;48.934;12.050;2023-01-08T01:46:20;9.30;;;6.53;;
68479;SDS011;55469;48.934;12.050;2023-01-08T01:49:10;9.63;;;6.53;;
68479;SDS011;55469;48.934;12.050;2023-01-08T01:51:40;8.57;;;6.03;;
68479;SDS011;55469;48.934;12.050;2023-01-08T01:54:10;9.73;;;6.63;;
68479;SDS011;55469;48.934;12.050;2023-01-08T01:56:37;9.70;;;6.22;;
68479;SDS011;55469;48.934;12.050;2023-01-08T01:59:03;8.90;;;6.32;;
68479;SDS011;55469;48.934;12.050;2023-01-08T02:01:30;8.95;;;6.45;;
68479;SDS011;55469;48.934;12.050;2023-01-08T02:03:56;9.18;;;6.65;;
68479;SDS011;55469;48.934;12.050;2023-01-08T02:06:27;8.32;;;6.20;;
68479;SDS011;55469;48.934;12.050;2023-01-08T02:11:49;9.82;;;6.20;;
68479;SDS011;55469;48.934;12.050;2023-01-08T02:20:46;9.05;;;6.00;;
68479;SDS011;55469;48.934;12.050;2023-01-08T02:26:25;8.80;;;6.20;;
68479;SDS011;55469;48.934;12.050;2023-01-08T02:31:40;8.43;;;6.23;;
68479;SDS011;55469;48.934;12.050;2023-01-08T02:34:09;8.55;;;6.20;;
68479;SDS011;55469;48.934;12.050;2023-01-08T02:41:38;7.97;;;5.93;;
68479;SDS011;55469;48.934;12.050;2023-01-08T02:44:18;8.43;;;6.20;;
68479;SDS011;55469;48.934;12.050;2023-01-08T02:46:51;7.88;;;5.82;;
68479;SDS011;55469;48.934;12.050;2023-01-08T02:49:20;8.65;;;6.20;;
68479;SDS011;55469;48.934;12.050;2023-01-08T02:51:49;8.32;;;6.10;;
68479;SDS011;55469;48.934;12.050;2023-01-08T02:54:22;9.10;;;6.32;;
68479;SDS011;55469;48.934;12.050;2023-01-08T02:56:54;8.07;;;5.65;;
68479;SDS011;55469;48.934;12.050;2023-01-08T02:59:26;8.15;;;5.60;;
68479;SDS011;55469;48.934;12.050;2023-01-08T03:01:53;9.23;;;6.20;;
68479;SDS011;55469;48.934;12.050;2023-01-08T03:04:20;9.38;;;6.20;;
68479;SDS011;55469;48.934;12.050;2023-01-08T03:06:48;9.50;;;6.82;;
68479;SDS011;55469;48.934;12.050;2023-01-08T03:09:14;8.82;;;6.13;;
68479;SDS011;55469;48.934;12.050;2023-01-08T03:11:45;8.18;;;6.07;;
68479;SDS011;55469;48.934;12.050;2023-01-08T03:16:59;7.78;;;5.93;;
68479;SDS011;55469;48.934;12.050;2023-01-08T03:19:37;7.95;;;5.80;;
68479;SDS011;55469;48.934;12.050;2023-01-08T03:22:08;8.82;;;6.10;;
68479;SDS011;55469;48.934;12.050;2023-01-08T03:24:38;7.13;;;5.80;;
68479;SDS011;55469;48.934;12.050;2023-01-08T03:27:08;8.23;;;5.68;;
68479;SDS011;55469;48.934;12.050;2023-01-08T03:29:40;9.38;;;6.28;;
68479;SDS011;55469;48.934;12.050;2023-01-08T03:32:07;8.88;;;6.35;;
68479;SDS011;55469;48.934;12.050;2023-01-08T03:34:38;8.00;;;5.82;;
68479;SDS011;55469;48.934;12.050;2023-01-08T03:37:06;7.75;;;5.78;;
68479;SDS011;55469;48.934;12.050;2023-01-08T03:39:39;7.90;;;6.03;;
68479;SDS011;55469;48.934;12.050;2023-01-08T03:42:09;7.53;;;5.70;;
68479;SDS011;55469;48.934;12.050;2023-01-08T03:44:37;8.30;;;6.25;;
68479;SDS011;55469;48.934;12.050;2023-01-08T03:47:03;8.10;;;6.05;;
68479;SDS011;55469;48.934;12.050;2023-01-08T03:49:32;8.07;;;6.03;;
68479;SDS011;55469;48.934;12.050;2023-01-08T03:51:59;8.02;;;5.60;;
68479;SDS011;55469;48.934;12.050;2023-01-08T03:54:27;8.40;;;6.00;;
68479;SDS011;55469;48.934;12.050;2023-01-08T03:56:57;7.28;;;5.78;;
68479;SDS011;55469;48.934;12.050;2023-01-08T03:59:22;7.35;;;5.60;;
68479;SDS011;55469;48.934;12.050;2023-01-08T04:01:48;7.15;;;5.78;;
68479;SDS011;55469;48.934;12.050;2023-01-08T04:04:14;6.60;;;5.30;;
68479;SDS011;55469;48.934;12.050;2023-01-08T04:06:41;8.15;;;5.75;;
68479;SDS011;55469;48.934;12.050;2023-01-08T04:09:10;8.20;;;6.05;;
68479;SDS011;55469;48.934;12.050;2023-01-08T04:11:35;6.55;;;5.53;;
68479;SDS011;55469;48.934;12.050;2023-01-08T04:14:01;7.05;;;5.35;;
68479;SDS011;55469;48.934;12.050;2023-01-08T04:16:27;7.43;;;5.35;;
68479;SDS011;55469;48.934;12.050;2023-01-08T04:18:52;7.60;;;5.72;;
68479;SDS011;55469;48.934;12.050;2023-01-08T04:21:18;7.07;;;5.45;;
68479;SDS011;55469;48.934;12.050;2023-01-08T04:23:44;7.53;;;5.80;;
68479;SDS011;55469;48.934;12.050;2023-01-08T04:26:10;7.47;;;5.30;;
68479;SDS011;55469;48.934;12.050;2023-01-08T04:28:35;9.48;;;5.63;;
68479;SDS011;55469;48.934;12.050;2023-01-08T04:31:05;6.75;;;5.45;;
68479;SDS011;55469;48.934;12.050;2023-01-08T04:33:32;8.00;;;5.47;;
68479;SDS011;55469;48.934;12.050;2023-01-08T04:35:58;6.72;;;5.63;;
68479;SDS011;55469;48.934;12.050;2023-01-08T04:38:24;7.00;;;5.43;;
68479;SDS011;55469;48.934;12.050;2023-01-08T04:40:49;7.57;;;5.78;;
68479;SDS011;55469;48.934;12.050;2023-01-08T04:43:22;7.43;;;5.45;;
68479;SDS011;55469;48.934;12.050;2023-01-08T04:45:48;7.72;;;5.88;;
68479;SDS011;55469;48.934;12.050;2023-01-08T04:48:14;7.45;;;5.85;;
68479;SDS011;55469;48.934;12.050;2023-01-08T04:50:39;7.30;;;5.35;;
68479;SDS011;55469;48.934;12.050;2023-01-08T04:53:05;6.20;;;5.07;;
68479;SDS011;55469;48.934;12.050;2023-01-08T04:55:32;8.02;;;5.40;;
68479;SDS011;55469;48.934;12.050;2023-01-08T04:57:58;6.82;;;5.35;;
68479;SDS011;55469;48.934;12.050;2023-01-08T05:00:24;7.20;;;5.78;;
68479;SDS011;55469;48.934;12.050;2023-01-08T05:02:49;7.00;;;5.43;;
68479;SDS011;55469;48.934;12.050;2023-01-08T05:05:15;7.38;;;5.22;;
68479;SDS011;55469;48.934;12.050;2023-01-08T05:07:41;7.22;;;5.60;;
68479;SDS011;55469;48.934;12.050;2023-01-08T05:10:07;6.68;;;5.40;;
68479;SDS011;55469;48.934;12.050;2023-01-08T05:12:33;7.10;;;5.53;;
68479;SDS011;55469;48.934;12.050;2023-01-08T05:14:58;6.38;;;5.10;;
68479;SDS011;55469;48.934;12.050;2023-01-08T05:17:24;7.18;;;4.80;;
68479;SDS011;55469;48.934;12.050;2023-01-08T05:19:50;6.22;;;5.07;;
68479;SDS011;55469;48.934;12.050;2023-01-08T05:22:15;6.65;;;5.35;;
68479;SDS011;55469;48.934;12.050;2023-01-08T05:24:41;6.45;;;5.15;;
68479;SDS011;55469;48.934;12.050;2023-01-08T05:27:07;7.00;;;5.22;;
68479;SDS011;55469;48.934;12.050;2023-01-08T05:29:32;6.43;;;5.10;;
68479;SDS011;55469;48.934;12.050;2023-01-08T05:31:58;5.95;;;5.03;;
68479;SDS011;55469;48.934;12.050;2023-01-08T05:34:24;7.82;;;5.35;;
68479;SDS011;55469;48.934;12.050;2023-01-08T05:36:49;7.18;;;5.65;;
68479;SDS011;55469;48.934;12.050;2023-01-08T05:39:15;7.22;;;5.50;;
68479;SDS011;55469;48.934;12.050;2023-01-08T05:41:41;6.13;;;5.15;;
68479;SDS011;55469;48.934;12.050;2023-01-08T05:44:10;6.22;;;5.22;;
68479;SDS011;55469;48.934;12.050;2023-01-08T05:46:35;6.20;;;5.28;;
68479;SDS011;55469;48.934;12.050;2023-01-08T05:49:01;6.40;;;5.00;;
68479;SDS011;55469;48.934;12.050;2023-01-08T05:51:27;7.38;;;5.15;;
68479;SDS011;55469;48.934;12.050;2023-01-08T05:53:52;6.85;;;5.20;;
68479;SDS011;55469;48.934;12.050;2023-01-08T05:56:18;6.45;;;5.32;;
68479;SDS011;55469;48.934;12.050;2023-01-08T05:58:44;6.53;;;5.03;;
68479;SDS011;55469;48.934;12.050;2023-01-08T06:01:10;6.28;;;5.20;;
68479;SDS011;55469;48.934;12.050;2023-01-08T06:03:39;5.53;;;4.93;;
68479;SDS011;55469;48.934;12.050;2023-01-08T06:06:06;6.40;;;5.07;;
68479;SDS011;55469;48.934;12.050;2023-01-08T06:08:32;6.10;;;4.90;;
68479;SDS011;55469;48.934;12.050;2023-01-08T06:11:02;6.65;;;4.82;;
68479;SDS011;55469;48.934;12.050;2023-01-08T06:13:30;6.28;;;4.90;;
68479;SDS011;55469;48.934;12.050;2023-01-08T06:15:57;6.25;;;5.20;;
68479;SDS011;55469;48.934;12.050;2023-01-08T06:18:24;6.13;;;4.57;;
68479;SDS011;55469;48.934;12.050;2023-01-08T06:20:50;6.53;;;5.13;;
68479;SDS011;55469;48.934;12.050;2023-01-08T06:23:16;5.70;;;4.65;;
68479;SDS011;55469;48.934;12.050;2023-01-08T06:25:42;6.35;;;4.78;;
68479;SDS011;55469;48.934;12.050;2023-01-08T06:28:08;7.10;;;4.90;;
68479;SDS011;55469;48.934;12.050;2023-01-08T06:30:34;6.55;;;4.63;;
68479;SDS011;55469;48.934;12.050;2023-01-08T06:33:00;6.55;;;5.40;;
68479;SDS011;55469;48.934;12.050;2023-01-08T06:35:26;6.75;;;5.18;;
68479;SDS011;55469;48.934;12.050;2023-01-08T06:37:56;5.82;;;4.90;;
68479;SDS011;55469;48.934;12.050;2023-01-08T06:40:22;7.13;;;4.93;;
68479;SDS011;55469;48.934;12.050;2023-01-08T06:42:48;6.45;;;5.07;;
68479;SDS011;55469;48.934;12.050;2023-01-08T06:45:13;6.63;;;4.90;;
68479;SDS011;55469;48.934;12.050;2023-01-08T06:47:39;6.13;;;4.90;;
68479;SDS011;55469;48.934;12.050;2023-01-08T06:50:05;5.72;;;4.97;;
68479;SDS011;55469;48.934;12.050;2023-01-08T06:52:32;5.95;;;5.10;;
68479;SDS011;55469;48.934;12.050;2023-01-08T06:54:57;6.03;;;4.72;;
68479;SDS011;55469;48.934;12.050;2023-01-08T06:57:23;6.18;;;4.93;;
68479;SDS011;55469;48.934;12.050;2023-01-08T06:59:49;5.97;;;4.82;;
68479;SDS011;55469;48.934;12.050;2023-01-08T07:02:15;5.60;;;4.50;;
68479;SDS011;55469;48.934;12.050;2023-01-08T07:04:42;5.32;;;4.47;;
68479;SDS011;55469;48.934;12.050;2023-01-08T07:07:12;6.78;;;5.40;;
68479;SDS011;55469;48.934;12.050;2023-01-08T07:09:42;5.82;;;4.55;;
68479;SDS011;55469;48.934;12.050;2023-01-08T07:12:11;5.22;;;4.28;;
68479;SDS011;55469;48.934;12.050;2023-01-08T07:14:38;6.03;;;4.95;;
68479;SDS011;55469;48.934;12.050;2023-01-08T07:17:04;5.70;;;4.72;;
68479;SDS011;55469;48.934;12.050;2023-01-08T07:19:30;6.05;;;5.22;;
68479;SDS011;55469;48.934;12.050;2023-01-08T07:21:56;5.57;;;4.72;;
68479;SDS011;55469;48.934;12.050;2023-01-08T07:24:22;4.85;;;4.32;;
68479;SDS011;55469;48.934;12.050;2023-01-08T07:26:47;5.88;;;4.55;;
68479;SDS011;55469;48.934;12.050;2023-01-08T07:29:13;5.70;;;4.80;;
68479;SDS011;55469;48.934;12.050;2023-01-08T07:31:39;5.63;;;4.47;;
68479;SDS011;55469;48.934;12.050;2023-01-08T07:34:04;5.97;;;4.75;;
68479;SDS011;55469;48.934;12.050;2023-01-08T07:36:30;6.03;;;4.80;;
68479;SDS011;55469;48.934;12.050;2023-01-08T07:38:56;6.07;;;4.63;;
68479;SDS011;55469;48.934;12.050;2023-01-08T07:41:21;4.82;;;4.22;;
68479;SDS011;55469;48.934;12.050;2023-01-08T07:43:47;5.38;;;4.47;;
68479;SDS011;55469;48.934;12.050;2023-01-08T07:46:13;5.22;;;4.32;;
68479;SDS011;55469;48.934;12.050;2023-01-08T07:48:40;6.10;;;4.90;;
68479;SDS011;55469;48.934;12.050;2023-01-08T07:51:06;5.70;;;4.68;;
68479;SDS011;55469;48.934;12.050;2023-01-08T07:53:35;6.22;;;4.70;;
68479;SDS011;55469;48.934;12.050;2023-01-08T07:56:10;6.38;;;4.60;;
68479;SDS011;55469;48.934;12.050;2023-01-08T07:58:36;5.28;;;4.45;;
68479;SDS011;55469;48.934;12.050;2023-01-08T08:01:02;5.65;;;4.40;;
68479;SDS011;55469;48.934;12.050;2023-01-08T08:03:30;5.18;;;4.38;;
68479;SDS011;55469;48.934;12.050;2023-01-08T08:05:58;6.03;;;4.38;;
68479;SDS011;55469;48.934;12.050;2023-01-08T08:08:25;4.80;;;4.05;;
68479;SDS011;55469;48.934;12.050;2023-01-08T08:10:51;5.35;;;4.22;;
68479;SDS011;55469;48.934;12.050;2023-01-08T08:13:17;5.15;;;4.35;;
68479;SDS011;55469;48.934;12.050;2023-01-08T08:15:42;4.70;;;4.18;;
68479;SDS011;55469;48.934;12.050;2023-01-08T08:18:08;5.10;;;4.10;;
68479;SDS011;55469;48.934;12.050;2023-01-08T08:20:34;4.97;;;4.15;;
68479;SDS011;55469;48.934;12.050;2023-01-08T08:23:01;5.85;;;4.32;;
68479;SDS011;55469;48.934;12.050;2023-01-08T08:25:32;4.65;;;4.20;;
68479;SDS011;55469;48.934;12.050;2023-01-08T08:27:59;4.82;;;4.32;;
68479;SDS011;55469;48.934;12.050;2023-01-08T08:30:26;5.50;;;4.18;;
68479;SDS011;55469;48.934;12.050;2023-01-08T08:32:53;4.80;;;4.13;;
68479;SDS011;55469;48.934;12.050;2023-01-08T08:35:20;4.95;;;4.13;;
68479;SDS011;55469;48.934;12.050;2023-01-08T08:37:46;4.45;;;4.03;;
68479;SDS011;55469;48.934;12.050;2023-01-08T08:40:12;4.70;;;4.20;;
68479;SDS011;55469;48.934;12.050;2023-01-08T08:42:38;4.40;;;3.85;;
68479;SDS011;55469;48.934;12.050;2023-01-08T08:45:04;5.18;;;4.15;;
68479;SDS011;55469;48.934;12.050;2023-01-08T08:47:30;4.70;;;4.10;;
68479;SDS011;55469;48.934;12.050;2023-01-08T08:49:56;4.45;;;4.05;;
68479;SDS011;55469;48.934;12.050;2023-01-08T08:52:22;5.07;;;4.40;;
68479;SDS011;55469;48.934;12.050;2023-01-08T08:54:47;5.40;;;4.00;;
68479;SDS011;55469;48.934;12.050;2023-01-08T08:57:13;5.22;;;4.00;;
68479;SDS011;55469;48.934;12.050;2023-01-08T08:59:39;4.97;;;4.00;;
68479;SDS011;55469;48.934;12.050;2023-01-08T09:02:05;4.78;;;3.97;;
68479;SDS011;55469;48.934;12.050;2023-01-08T09:04:31;4.70;;;4.15;;
68479;SDS011;55469;48.934;12.050;2023-01-08T09:06:58;5.55;;;4.53;;
68479;SDS011;55469;48.934;12.050;2023-01-08T09:09:24;5.68;;;4.20;;
68479;SDS011;55469;48.934;12.050;2023-01-08T09:11:51;4.90;;;3.95;;
68479;SDS011;55469;48.934;12.050;2023-01-08T09:14:17;5.03;;;4.15;;
68479;SDS011;55469;48.934;12.050;2023-01-08T09:16:43;5.15;;;4.13;;
68479;SDS011;55469;48.934;12.050;2023-01-08T09:19:09;4.80;;;3.88;;
68479;SDS011;55469;48.934;12.050;2023-01-08T09:21:35;5.57;;;4.10;;
68479;SDS011;55469;48.934;12.050;2023-01-08T09:24:01;4.45;;;3.65;;
68479;SDS011;55469;48.934;12.050;2023-01-08T09:26:27;5.45;;;4.38;;
68479;SDS011;55469;48.934;12.050;2023-01-08T09:28:54;5.47;;;4.18;;
68479;SDS011;55469;48.934;12.050;2023-01-08T09:31:23;4.45;;;3.88;;
68479;SDS011;55469;48.934;12.050;2023-01-08T09:33:50;5.55;;;4.20;;
68479;SDS011;55469;48.934;12.050;2023-01-08T09:36:15;4.68;;;3.80;;
68479;SDS011;55469;48.934;12.050;2023-01-08T09:38:42;4.50;;;3.95;;
68479;SDS011;55469;48.934;12.050;2023-01-08T09:41:28;4.85;;;4.10;;
68479;SDS011;55469;48.934;12.050;2023-01-08T09:44:00;5.03;;;4.07;;
68479;SDS011;55469;48.934;12.050;2023-01-08T09:46:28;4.78;;;3.90;;
68479;SDS011;55469;48.934;12.050;2023-01-08T09:48:56;5.05;;;4.13;;
68479;SDS011;55469;48.934;12.050;2023-01-08T09:51:31;4.40;;;3.70;;
68479;SDS011;55469;48.934;12.050;2023-01-08T09:53:59;5.22;;;4.15;;
68479;SDS011;55469;48.934;12.050;2023-01-08T09:56:26;4.38;;;3.70;;
68479;SDS011;55469;48.934;12.050;2023-01-08T09:58:55;4.45;;;3.92;;
68479;SDS011;55469;48.934;12.050;2023-01-08T10:01:26;4.30;;;3.90;;
68479;SDS011;55469;48.934;12.050;2023-01-08T10:04:09;4.20;;;3.42;;
68479;SDS011;55469;48.934;12.050;2023-01-08T10:07:11;4.93;;;4.07;;
68479;SDS011;55469;48.934;12.050;2023-01-08T10:09:46;5.05;;;4.00;;
68479;SDS011;55469;48.934;12.050;2023-01-08T10:12:36;4.80;;;3.90;;
68479;SDS011;55469;48.934;12.050;2023-01-08T10:15:03;4.32;;;3.90;;
68479;SDS011;55469;48.934;12.050;2023-01-08T10:17:37;5.20;;;3.95;;
68479;SDS011;55469;48.934;12.050;2023-01-08T10:20:12;5.90;;;4.28;;
68479;SDS011;55469;48.934;12.050;2023-01-08T10:22:46;4.38;;;3.78;;
68479;SDS011;55469;48.934;12.050;2023-01-08T10:25:22;4.30;;;3.83;;
68479;SDS011;55469;48.934;12.050;2023-01-08T10:27:52;4.30;;;3.85;;
68479;SDS011;55469;48.934;12.050;2023-01-08T10:30:27;4.93;;;4.25;;
68479;SDS011;55469;48.934;12.050;2023-01-08T10:33:08;5.03;;;3.78;;
68479;SDS011;55469;48.934;12.050;2023-01-08T10:35:39;5.63;;;4.32;;
68479;SDS011;55469;48.934;12.050;2023-01-08T10:38:06;5.55;;;4.35;;
68479;SDS011;55469;48.934;12.050;2023-01-08T10:40:54;5.22;;;4.25;;
68479;SDS011;55469;48.934;12.050;2023-01-08T10:43:21;6.07;;;4.53;;
68479;SDS011;55469;48.934;12.050;2023-01-08T10:45:54;6.70;;;4.50;;
68479;SDS011;55469;48.934;12.050;2023-01-08T10:48:32;5.82;;;4.35;;
68479;SDS011;55469;48.934;12.050;2023-01-08T10:51:24;6.47;;;4.75;;
68479;SDS011;55469;48.934;12.050;2023-01-08T10:53:54;6.50;;;4.60;;
68479;SDS011;55469;48.934;12.050;2023-01-08T10:56:29;6.53;;;4.28;;
68479;SDS011;55469;48.934;12.050;2023-01-08T10:59:04;5.78;;;4.38;;
68479;SDS011;55469;48.934;12.050;2023-01-08T11:01:30;6.05;;;4.47;;
68479;SDS011;55469;48.934;12.050;2023-01-08T11:04:00;9.15;;;6.05;;
68479;SDS011;55469;48.934;12.050;2023-01-08T11:06:29;11.00;;;7.85;;
68479;SDS011;55469;48.934;12.050;2023-01-08T11:08:58;12.75;;;8.65;;
68479;SDS011;55469;48.934;12.050;2023-01-08T11:11:31;12.88;;;8.95;;
68479;SDS011;55469;48.934;12.050;2023-01-08T11:14:02;14.45;;;9.27;;
68479;SDS011;55469;48.934;12.050;2023-01-08T11:16:39;12.73;;;9.00;;
68479;SDS011;55469;48.934;12.050;2023-01-08T11:19:16;16.15;;;9.88;;
68479;SDS011;55469;48.934;12.050;2023-01-08T11:22:22;14.45;;;10.18;;
68479;SDS011;55469;48.934;12.050;2023-01-08T11:24:45;13.68;;;9.88;;
68479;SDS011;55469;48.934;12.050;2023-01-08T11:37:56;14.88;;;9.32;;
68479;SDS011;55469;48.934;12.050;2023-01-08T11:43:32;12.73;;;8.27;;
68479;SDS011;55469;48.934;12.050;2023-01-08T11:46:36;9.95;;;7.57;;
68479;SDS011;55469;48.934;12.050;2023-01-08T11:49:43;10.15;;;7.47;;
68479;SDS011;55469;48.934;12.050;2023-01-08T11:55:44;10.57;;;7.10;;
68479;SDS011;55469;48.934;12.050;2023-01-08T12:07:09;7.53;;;6.05;;
68479;SDS011;55469;48.934;12.050;2023-01-08T12:10:19;7.80;;;6.03;;
68479;SDS011;55469;48.934;12.050;2023-01-08T12:32:46;11.65;;;5.60;;
68479;SDS011;55469;48.934;12.050;2023-01-08T12:35:23;7.97;;;5.30;;
68479;SDS011;55469;48.934;12.050;2023-01-08T12:37:56;10.30;;;5.70;;
68479;SDS011;55469;48.934;12.050;2023-01-08T12:40:36;8.20;;;5.68;;
68479;SDS011;55469;48.934;12.050;2023-01-08T12:43:17;7.32;;;5.03;;
68479;SDS011;55469;48.934;12.050;2023-01-08T12:45:55;8.43;;;5.00;;
68479;SDS011;55469;48.934;12.050;2023-01-08T12:48:25;9.15;;;4.97;;
68479;SDS011;55469;48.934;12.050;2023-01-08T12:51:00;7.40;;;4.78;;
68479;SDS011;55469;48.934;12.050;2023-01-08T12:59:20;95.35;;;23.30;;
68479;SDS011;55469;48.934;12.050;2023-01-08T13:07:44;179.38;;;48.65;;
68479;SDS011;55469;48.934;12.050;2023-01-08T13:12:58;182.98;;;53.35;;
68479;SDS011;55469;48.934;12.050;2023-01-08T13:15:26;174.23;;;49.05;;
68479;SDS011;55469;48.934;12.050;2023-01-08T13:17:55;141.27;;;40.25;;
68479;SDS011;55469;48.934;12.050;2023-01-08T13:20:31;136.25;;;36.58;;
68479;SDS011;55469;48.934;12.050;2023-01-08T13:22:59;234.77;;;66.60;;
68479;SDS011;55469;48.934;12.050;2023-01-08T13:25:32;167.77;;;47.08;;
68479;SDS011;55469;48.934;12.050;2023-01-08T13:31:12;144.45;;;40.42;;
68479;SDS011;55469;48.934;12.050;2023-01-08T13:33:52;113.95;;;31.33;;
68479;SDS011;55469;48.934;12.050;2023-01-08T13:36:20;102.68;;;28.08;;
68479;SDS011;55469;48.934;12.050;2023-01-08T13:39:30;80.55;;;23.80;;
68479;SDS011;55469;48.934;12.050;2023-01-08T13:44:38;54.88;;;17.95;;
68479;SDS011;55469;48.934;12.050;2023-01-08T13:47:17;49.00;;;15.65;;
68479;SDS011;55469;48.934;12.050;2023-01-08T13:49:52;41.15;;;14.93;;
68479;SDS011;55469;48.934;12.050;2023-01-08T13:55:19;29.02;;;12.35;;
68479;SDS011;55469;48.934;12.050;2023-01-08T13:57:56;30.70;;;13.13;;
68479;SDS011;55469;48.934;12.050;2023-01-08T14:03:25;26.15;;;11.38;;
68479;SDS011;55469;48.934;12.050;2023-01-08T14:06:10;25.92;;;11.73;;
68479;SDS011;55469;48.934;12.050;2023-01-08T14:08:54;21.58;;;11.10;;
68479;SDS011;55469;48.934;12.050;2023-01-08T14:11:39;19.83;;;9.93;;
68479;SDS011;55469;48.934;12.050;2023-01-08T14:14:12;22.38;;;10.55;;
68479;SDS011;55469;48.934;12.050;2023-01-08T14:16:42;23.58;;;10.13;;
68479;SDS011;55469;48.934;12.050;2023-01-08T14:19:29;22.80;;;9.85;;
68479;SDS011;55469;48.934;12.050;2023-01-08T14:21:58;22.48;;;9.57;;
68479;SDS011;55469;48.934;12.050;2023-01-08T14:24:28;18.63;;;9.25;;
68479;SDS011;55469;48.934;12.050;2023-01-08T14:26:54;19.85;;;9.63;;
68479;SDS011;55469;48.934;12.050;2023-01-08T14:29:23;18.13;;;9.38;;
68479;SDS011;55469;48.934;12.050;2023-01-08T14:31:55;19.05;;;8.07;;
68479;SDS011;55469;48.934;12.050;2023-01-08T14:34:24;16.58;;;8.25;;
68479;SDS011;55469;48.934;12.050;2023-01-08T14:36:54;17.25;;;8.73;;
68479;SDS011;55469;48.934;12.050;2023-01-08T14:39:24;16.75;;;7.90;;
68479;SDS011;55469;48.934;12.050;2023-01-08T14:42:06;14.38;;;7.40;;
68479;SDS011;55469;48.934;12.050;2023-01-08T14:45:43;16.80;;;7.80;;
68479;SDS011;55469;48.934;12.050;2023-01-08T14:47:55;17.38;;;7.30;;
68479;SDS011;55469;48.934;12.050;2023-01-08T14:50:36;17.73;;;7.82;;
68479;SDS011;55469;48.934;12.050;2023-01-08T14:53:21;16.02;;;7.05;;
68479;SDS011;55469;48.934;12.050;2023-01-08T14:55:53;16.45;;;7.53;;
68479;SDS011;55469;48.934;12.050;2023-01-08T14:58:21;16.25;;;6.68;;
68479;SDS011;55469;48.934;12.050;2023-01-08T15:00:54;13.55;;;6.72;;
68479;SDS011;55469;48.934;12.050;2023-01-08T15:03:31;16.25;;;7.47;;
68479;SDS011;55469;48.934;12.050;2023-01-08T15:06:05;13.25;;;6.65;;
68479;SDS011;55469;48.934;12.050;2023-01-08T15:08:35;18.10;;;6.93;;
68479;SDS011;55469;48.934;12.050;2023-01-08T15:13:54;13.27;;;6.53;;
68479;SDS011;55469;48.934;12.050;2023-01-08T15:16:31;13.90;;;7.07;;
68479;SDS011;55469;48.934;12.050;2023-01-08T15:21:38;17.08;;;7.47;;
68479;SDS011;55469;48.934;12.050;2023-01-08T15:24:13;16.45;;;6.32;;
68479;SDS011;55469;48.934;12.050;2023-01-08T15:26:52;12.95;;;6.47;;
68479;SDS011;55469;48.934;12.050;2023-01-08T15:29:21;14.57;;;7.20;;
68479;SDS011;55469;48.934;12.050;2023-01-08T15:31:57;16.63;;;6.90;;
68479;SDS011;55469;48.934;12.050;2023-01-08T15:34:45;11.05;;;6.20;;
68479;SDS011;55469;48.934;12.050;2023-01-08T15:37:11;15.38;;;6.72;;
68479;SDS011;55469;48.934;12.050;2023-01-08T15:39:38;14.15;;;6.65;;
68479;SDS011;55469;48.934;12.050;2023-01-08T15:42:14;16.60;;;6.72;;
68479;SDS011;55469;48.934;12.050;2023-01-08T15:45:22;14.60;;;6.63;;
68479;SDS011;55469;48.934;12.050;2023-01-08T15:47:54;12.05;;;6.15;;
68479;SDS011;55469;48.934;12.050;2023-01-08T15:50:19;13.98;;;7.03;;
68479;SDS011;55469;48.934;12.050;2023-01-08T15:52:45;13.50;;;6.70;;
68479;SDS011;55469;48.934;12.050;2023-01-08T15:55:15;14.35;;;7.07;;
68479;SDS011;55469;48.934;12.050;2023-01-08T15:57:44;13.63;;;6.47;;
68479;SDS011;55469;48.934;12.050;2023-01-08T16:00:16;16.55;;;6.88;;
68479;SDS011;55469;48.934;12.050;2023-01-08T16:02:45;16.02;;;6.85;;
68479;SDS011;55469;48.934;12.050;2023-01-08T16:05:13;14.88;;;6.28;;
68479;SDS011;55469;48.934;12.050;2023-01-08T16:07:41;14.98;;;7.25;;
68479;SDS011;55469;48.934;12.050;2023-01-08T16:10:10;14.65;;;6.93;;
68479;SDS011;55469;48.934;12.050;2023-01-08T16:12:37;19.25;;;7.30;;
68479;SDS011;55469;48.934;12.050;2023-01-08T16:15:03;15.80;;;6.53;;
68479;SDS011;55469;48.934;12.050;2023-01-08T16:17:32;11.45;;;6.00;;
68479;SDS011;55469;48.934;12.050;2023-01-08T16:20:00;12.00;;;6.82;;
68479;SDS011;55469;48.934;12.050;2023-01-08T16:22:29;13.43;;;6.53;;
68479;SDS011;55469;48.934;12.050;2023-01-08T16:24:55;12.85;;;6.38;;
68479;SDS011;55469;48.934;12.050;2023-01-08T16:27:21;13.43;;;7.03;;
68479;SDS011;55469;48.934;12.050;2023-01-08T16:29:47;12.35;;;6.50;;